sensor_id;sensor_type;location;lat;lon;timestamp;temperature;humidity
48836;DHT22;62581;47.342;7.908;2024-02-14T00:00:02;5.10;99.90
48836;DHT22;62581;47.342;7.908;2024-02-14T00:02:29;5.10;99.90
48836;DHT22;62581;47.342;7.908;2024-02-14T00:04:56;5.10;99.90
48836;DHT22;62581;47.342;7.908;2024-02-14T00:07:23;5.10;99.90
48836;DHT22;62581;47.342;7.908;2024-02-14T00:09:52;5.10;99.90
48836;DHT22;62581;47.342;7.908;2024-02-14T00:12:20;5.10;99.90
48836;DHT22;62581;47.342;7.908;2024-02-14T00:14:50;5.10;99.90
48836;DHT22;62581;47.342;7.908;2024-02-14T00:17:17;5.10;99.90
48836;DHT22;62581;47.342;7.908;2024-02-14T00:19:44;5.10;99.90
48836;DHT22;62581;47.342;7.908;2024-02-14T00:22:11;5.20;99.90
48836;DHT22;62581;47.342;7.908;2024-02-14T00:24:38;5.20;99.90
48836;DHT22;62581;47.342;7.908;2024-02-14T00:27:05;5.20;99.90
48836;DHT22;62581;47.342;7.908;2024-02-14T00:29:34;5.20;99.90
48836;DHT22;62581;47.342;7.908;2024-02-14T00:32:01;5.20;99.90
48836;DHT22;62581;47.342;7.908;2024-02-14T00:34:28;5.20;99.90
48836;DHT22;62581;47.342;7.908;2024-02-14T00:36:55;5.20;99.90
48836;DHT22;62581;47.342;7.908;2024-02-14T00:39:21;5.20;99.90
48836;DHT22;62581;47.342;7.908;2024-02-14T00:41:48;5.20;99.90
48836;DHT22;62581;47.342;7.908;2024-02-14T00:44:18;5.20;99.90
48836;DHT22;62581;47.342;7.908;2024-02-14T00:46:46;5.10;99.90
48836;DHT22;62581;47.342;7.908;2024-02-14T00:49:13;5.00;99.90
48836;DHT22;62581;47.342;7.908;2024-02-14T00:51:40;5.00;99.90
48836;DHT22;62581;47.342;7.908;2024-02-14T00:54:07;5.00;99.90
48836;DHT22;62581;47.342;7.908;2024-02-14T00:56:35;5.00;99.90
48836;DHT22;62581;47.342;7.908;2024-02-14T00:59:02;5.00;99.90
48836;DHT22;62581;47.342;7.908;2024-02-14T01:01:29;5.00;99.90
48836;DHT22;62581;47.342;7.908;2024-02-14T01:03:57;5.00;99.90
48836;DHT22;62581;47.342;7.908;2024-02-14T01:06:24;5.00;99.90
48836;DHT22;62581;47.342;7.908;2024-02-14T01:08:51;5.00;99.90
48836;DHT22;62581;47.342;7.908;2024-02-14T01:11:18;5.00;99.90
48836;DHT22;62581;47.342;7.908;2024-02-14T01:13:45;5.00;99.90
48836;DHT22;62581;47.342;7.908;2024-02-14T01:16:11;5.00;99.90
48836;DHT22;62581;47.342;7.908;2024-02-14T01:18:39;5.00;99.90
48836;DHT22;62581;47.342;7.908;2024-02-14T01:21:08;5.00;99.90
48836;DHT22;62581;47.342;7.908;2024-02-14T01:23:35;4.90;99.90
48836;DHT22;62581;47.342;7.908;2024-02-14T01:26:02;4.90;99.90
48836;DHT22;62581;47.342;7.908;2024-02-14T01:28:29;4.80;99.90
48836;DHT22;62581;47.342;7.908;2024-02-14T01:30:56;4.80;99.90
48836;DHT22;62581;47.342;7.908;2024-02-14T01:33:23;4.70;99.90
48836;DHT22;62581;47.342;7.908;2024-02-14T01:35:50;4.70;99.90
48836;DHT22;62581;47.342;7.908;2024-02-14T01:38:19;4.60;99.90
48836;DHT22;62581;47.342;7.908;2024-02-14T01:40:46;4.60;99.90
48836;DHT22;62581;47.342;7.908;2024-02-14T01:43:13;4.60;99.90
48836;DHT22;62581;47.342;7.908;2024-02-14T01:45:40;4.60;99.90
48836;DHT22;62581;47.342;7.908;2024-02-14T01:48:08;4.70;99.90
48836;DHT22;62581;47.342;7.908;2024-02-14T01:50:36;4.70;99.90
48836;DHT22;62581;47.342;7.908;2024-02-14T01:53:04;4.70;99.90
48836;DHT22;62581;47.342;7.908;2024-02-14T01:55:34;4.70;99.90
48836;DHT22;62581;47.342;7.908;2024-02-14T01:58:01;4.70;99.90
48836;DHT22;62581;47.342;7.908;2024-02-14T02:00:30;4.70;99.90
48836;DHT22;62581;47.342;7.908;2024-02-14T02:02:58;4.70;99.90
48836;DHT22;62581;47.342;7.908;2024-02-14T02:05:25;4.70;99.90
48836;DHT22;62581;47.342;7.908;2024-02-14T02:07:52;4.80;99.90
48836;DHT22;62581;47.342;7.908;2024-02-14T02:10:19;4.70;99.90
48836;DHT22;62581;47.342;7.908;2024-02-14T02:12:49;4.80;99.90
48836;DHT22;62581;47.342;7.908;2024-02-14T02:15:16;4.80;99.90
48836;DHT22;62581;47.342;7.908;2024-02-14T02:17:44;4.80;99.90
48836;DHT22;62581;47.342;7.908;2024-02-14T02:20:18;4.90;99.90
48836;DHT22;62581;47.342;7.908;2024-02-14T02:22:47;4.90;99.90
48836;DHT22;62581;47.342;7.908;2024-02-14T02:25:15;5.00;99.90
48836;DHT22;62581;47.342;7.908;2024-02-14T02:27:42;5.00;99.90
48836;DHT22;62581;47.342;7.908;2024-02-14T02:30:09;5.00;99.90
48836;DHT22;62581;47.342;7.908;2024-02-14T02:32:36;5.00;99.90
48836;DHT22;62581;47.342;7.908;2024-02-14T02:35:04;5.10;99.90
48836;DHT22;62581;47.342;7.908;2024-02-14T02:37:31;5.10;99.90
48836;DHT22;62581;47.342;7.908;2024-02-14T02:39:59;5.10;99.90
48836;DHT22;62581;47.342;7.908;2024-02-14T02:42:26;5.20;99.90
48836;DHT22;62581;47.342;7.908;2024-02-14T02:44:54;5.20;99.90
48836;DHT22;62581;47.342;7.908;2024-02-14T02:47:21;5.20;99.90
48836;DHT22;62581;47.342;7.908;2024-02-14T02:49:48;5.30;99.90
48836;DHT22;62581;47.342;7.908;2024-02-14T02:52:15;5.30;99.90
48836;DHT22;62581;47.342;7.908;2024-02-14T02:54:42;5.20;99.90
48836;DHT22;62581;47.342;7.908;2024-02-14T02:57:14;5.30;99.90
48836;DHT22;62581;47.342;7.908;2024-02-14T02:59:41;5.30;99.90
48836;DHT22;62581;47.342;7.908;2024-02-14T03:02:09;5.30;99.90
48836;DHT22;62581;47.342;7.908;2024-02-14T03:04:37;5.30;99.90
48836;DHT22;62581;47.342;7.908;2024-02-14T03:07:05;5.30;99.90
48836;DHT22;62581;47.342;7.908;2024-02-14T03:09:33;5.20;99.90
48836;DHT22;62581;47.342;7.908;2024-02-14T03:12:00;5.20;99.90
48836;DHT22;62581;47.342;7.908;2024-02-14T03:14:30;5.20;99.90
48836;DHT22;62581;47.342;7.908;2024-02-14T03:16:58;5.30;99.90
48836;DHT22;62581;47.342;7.908;2024-02-14T03:19:26;5.30;99.90
48836;DHT22;62581;47.342;7.908;2024-02-14T03:21:53;5.30;99.90
48836;DHT22;62581;47.342;7.908;2024-02-14T03:24:21;5.40;99.90
48836;DHT22;62581;47.342;7.908;2024-02-14T03:26:48;5.30;99.90
48836;DHT22;62581;47.342;7.908;2024-02-14T03:29:17;5.40;99.90
48836;DHT22;62581;47.342;7.908;2024-02-14T03:31:46;5.30;99.90
48836;DHT22;62581;47.342;7.908;2024-02-14T03:34:13;5.30;99.90
48836;DHT22;62581;47.342;7.908;2024-02-14T03:36:40;5.30;99.90
48836;DHT22;62581;47.342;7.908;2024-02-14T03:39:08;5.20;99.90
48836;DHT22;62581;47.342;7.908;2024-02-14T03:41:36;5.10;99.90
48836;DHT22;62581;47.342;7.908;2024-02-14T03:44:04;5.10;99.90
48836;DHT22;62581;47.342;7.908;2024-02-14T03:46:32;5.00;99.90
48836;DHT22;62581;47.342;7.908;2024-02-14T03:49:02;5.10;99.90
48836;DHT22;62581;47.342;7.908;2024-02-14T03:51:29;5.10;99.90
48836;DHT22;62581;47.342;7.908;2024-02-14T03:53:56;5.10;99.90
48836;DHT22;62581;47.342;7.908;2024-02-14T03:56:23;5.00;99.90
48836;DHT22;62581;47.342;7.908;2024-02-14T03:58:50;5.00;99.90
48836;DHT22;62581;47.342;7.908;2024-02-14T04:01:17;5.00;99.90
48836;DHT22;62581;47.342;7.908;2024-02-14T04:03:46;5.00;99.90
48836;DHT22;62581;47.342;7.908;2024-02-14T04:06:14;5.00;99.90
48836;DHT22;62581;47.342;7.908;2024-02-14T04:08:42;5.00;99.90
48836;DHT22;62581;47.342;7.908;2024-02-14T04:11:09;5.00;99.90
48836;DHT22;62581;47.342;7.908;2024-02-14T04:13:38;4.90;99.90
48836;DHT22;62581;47.342;7.908;2024-02-14T04:16:06;5.00;99.90
48836;DHT22;62581;47.342;7.908;2024-02-14T04:18:33;5.00;99.90
48836;DHT22;62581;47.342;7.908;2024-02-14T04:21:00;5.00;99.90
48836;DHT22;62581;47.342;7.908;2024-02-14T04:23:28;5.00;99.90
48836;DHT22;62581;47.342;7.908;2024-02-14T04:25:55;5.10;99.90
48836;DHT22;62581;47.342;7.908;2024-02-14T04:28:22;5.10;99.90
48836;DHT22;62581;47.342;7.908;2024-02-14T04:30:49;5.10;99.90
48836;DHT22;62581;47.342;7.908;2024-02-14T04:33:16;5.10;99.90
48836;DHT22;62581;47.342;7.908;2024-02-14T04:35:43;5.20;99.90
48836;DHT22;62581;47.342;7.908;2024-02-14T04:38:10;5.10;99.90
48836;DHT22;62581;47.342;7.908;2024-02-14T04:40:39;5.10;99.90
48836;DHT22;62581;47.342;7.908;2024-02-14T04:43:06;5.20;99.90
48836;DHT22;62581;47.342;7.908;2024-02-14T04:45:33;5.20;99.90
48836;DHT22;62581;47.342;7.908;2024-02-14T04:48:00;5.20;99.90
48836;DHT22;62581;47.342;7.908;2024-02-14T04:50:27;5.20;99.90
48836;DHT22;62581;47.342;7.908;2024-02-14T04:52:55;5.30;99.90
48836;DHT22;62581;47.342;7.908;2024-02-14T04:55:22;5.30;99.90
48836;DHT22;62581;47.342;7.908;2024-02-14T04:57:50;5.30;99.90
48836;DHT22;62581;47.342;7.908;2024-02-14T05:00:18;5.30;99.90
48836;DHT22;62581;47.342;7.908;2024-02-14T05:02:45;5.30;99.90
48836;DHT22;62581;47.342;7.908;2024-02-14T05:05:12;5.30;99.90
48836;DHT22;62581;47.342;7.908;2024-02-14T05:07:39;5.40;99.90
48836;DHT22;62581;47.342;7.908;2024-02-14T05:10:07;5.40;99.90
48836;DHT22;62581;47.342;7.908;2024-02-14T05:12:34;5.40;99.90
48836;DHT22;62581;47.342;7.908;2024-02-14T05:15:02;5.40;99.90
48836;DHT22;62581;47.342;7.908;2024-02-14T05:17:29;5.40;99.90
48836;DHT22;62581;47.342;7.908;2024-02-14T05:19:56;5.40;99.90
48836;DHT22;62581;47.342;7.908;2024-02-14T05:22:23;5.40;99.90
48836;DHT22;62581;47.342;7.908;2024-02-14T05:24:50;5.40;99.90
48836;DHT22;62581;47.342;7.908;2024-02-14T05:27:17;5.40;99.90
48836;DHT22;62581;47.342;7.908;2024-02-14T05:29:45;5.40;99.90
48836;DHT22;62581;47.342;7.908;2024-02-14T05:32:13;5.40;99.90
48836;DHT22;62581;47.342;7.908;2024-02-14T05:34:40;5.40;99.90
48836;DHT22;62581;47.342;7.908;2024-02-14T05:37:07;5.40;99.90
48836;DHT22;62581;47.342;7.908;2024-02-14T05:39:34;5.40;99.90
48836;DHT22;62581;47.342;7.908;2024-02-14T05:42:01;5.40;99.90
48836;DHT22;62581;47.342;7.908;2024-02-14T05:44:28;5.40;99.90
48836;DHT22;62581;47.342;7.908;2024-02-14T05:46:55;5.50;99.90
48836;DHT22;62581;47.342;7.908;2024-02-14T05:49:24;5.50;99.90
48836;DHT22;62581;47.342;7.908;2024-02-14T05:51:51;5.60;99.90
48836;DHT22;62581;47.342;7.908;2024-02-14T05:54:19;5.70;99.90
48836;DHT22;62581;47.342;7.908;2024-02-14T05:56:46;5.70;99.90
48836;DHT22;62581;47.342;7.908;2024-02-14T05:59:12;5.70;99.90
48836;DHT22;62581;47.342;7.908;2024-02-14T06:01:39;5.70;99.90
48836;DHT22;62581;47.342;7.908;2024-02-14T06:04:06;5.70;99.90
48836;DHT22;62581;47.342;7.908;2024-02-14T06:06:35;5.70;99.90
48836;DHT22;62581;47.342;7.908;2024-02-14T06:09:02;5.80;99.90
48836;DHT22;62581;47.342;7.908;2024-02-14T06:11:35;5.80;99.90
48836;DHT22;62581;47.342;7.908;2024-02-14T06:14:04;5.80;99.90
48836;DHT22;62581;47.342;7.908;2024-02-14T06:16:32;5.80;99.90
48836;DHT22;62581;47.342;7.908;2024-02-14T06:18:59;5.70;99.90
48836;DHT22;62581;47.342;7.908;2024-02-14T06:21:26;5.80;99.90
48836;DHT22;62581;47.342;7.908;2024-02-14T06:23:55;5.80;99.90
48836;DHT22;62581;47.342;7.908;2024-02-14T06:26:24;5.80;99.90
48836;DHT22;62581;47.342;7.908;2024-02-14T06:28:51;5.80;99.90
48836;DHT22;62581;47.342;7.908;2024-02-14T06:31:20;5.80;99.90
48836;DHT22;62581;47.342;7.908;2024-02-14T06:33:47;5.80;99.90
48836;DHT22;62581;47.342;7.908;2024-02-14T06:36:14;5.80;99.90
48836;DHT22;62581;47.342;7.908;2024-02-14T06:38:41;5.90;99.90
48836;DHT22;62581;47.342;7.908;2024-02-14T06:41:10;5.90;99.90
48836;DHT22;62581;47.342;7.908;2024-02-14T06:43:37;6.00;99.90
48836;DHT22;62581;47.342;7.908;2024-02-14T06:46:05;6.00;99.90
48836;DHT22;62581;47.342;7.908;2024-02-14T06:48:32;6.00;99.90
48836;DHT22;62581;47.342;7.908;2024-02-14T06:50:59;6.10;99.90
48836;DHT22;62581;47.342;7.908;2024-02-14T06:53:26;6.10;99.90
48836;DHT22;62581;47.342;7.908;2024-02-14T06:55:53;6.10;99.90
48836;DHT22;62581;47.342;7.908;2024-02-14T06:58:21;6.20;99.90
48836;DHT22;62581;47.342;7.908;2024-02-14T07:00:48;6.20;99.90
48836;DHT22;62581;47.342;7.908;2024-02-14T07:03:16;6.30;99.90
48836;DHT22;62581;47.342;7.908;2024-02-14T07:05:43;6.30;99.90
48836;DHT22;62581;47.342;7.908;2024-02-14T07:08:10;6.40;99.90
48836;DHT22;62581;47.342;7.908;2024-02-14T07:10:37;6.60;99.90
48836;DHT22;62581;47.342;7.908;2024-02-14T07:13:04;6.60;99.90
48836;DHT22;62581;47.342;7.908;2024-02-14T07:15:33;6.60;99.90
48836;DHT22;62581;47.342;7.908;2024-02-14T07:18:00;6.60;99.90
48836;DHT22;62581;47.342;7.908;2024-02-14T07:20:27;6.70;99.90
48836;DHT22;62581;47.342;7.908;2024-02-14T07:22:54;6.70;99.90
48836;DHT22;62581;47.342;7.908;2024-02-14T07:25:22;6.70;99.90
48836;DHT22;62581;47.342;7.908;2024-02-14T07:27:49;6.70;99.90
48836;DHT22;62581;47.342;7.908;2024-02-14T07:30:16;6.70;99.90
48836;DHT22;62581;47.342;7.908;2024-02-14T07:32:45;6.80;99.90
48836;DHT22;62581;47.342;7.908;2024-02-14T07:35:12;6.80;99.90
48836;DHT22;62581;47.342;7.908;2024-02-14T07:37:39;6.80;99.90
48836;DHT22;62581;47.342;7.908;2024-02-14T07:40:09;6.90;99.90
48836;DHT22;62581;47.342;7.908;2024-02-14T07:42:37;6.90;99.90
48836;DHT22;62581;47.342;7.908;2024-02-14T07:45:05;7.00;99.90
48836;DHT22;62581;47.342;7.908;2024-02-14T07:47:31;7.00;99.90
48836;DHT22;62581;47.342;7.908;2024-02-14T07:50:00;7.00;99.90
48836;DHT22;62581;47.342;7.908;2024-02-14T07:52:28;7.10;99.90
48836;DHT22;62581;47.342;7.908;2024-02-14T07:54:56;7.10;99.90
48836;DHT22;62581;47.342;7.908;2024-02-14T07:57:23;7.10;99.90
48836;DHT22;62581;47.342;7.908;2024-02-14T07:59:50;7.10;99.90
48836;DHT22;62581;47.342;7.908;2024-02-14T08:02:18;7.10;99.90
48836;DHT22;62581;47.342;7.908;2024-02-14T08:04:45;7.20;99.90
48836;DHT22;62581;47.342;7.908;2024-02-14T08:07:14;7.10;99.90
48836;DHT22;62581;47.342;7.908;2024-02-14T08:09:41;7.10;99.90
48836;DHT22;62581;47.342;7.908;2024-02-14T08:12:07;7.20;99.90
48836;DHT22;62581;47.342;7.908;2024-02-14T08:14:34;7.20;99.90
48836;DHT22;62581;47.342;7.908;2024-02-14T08:17:02;7.20;99.90
48836;DHT22;62581;47.342;7.908;2024-02-14T08:19:29;7.20;99.90
48836;DHT22;62581;47.342;7.908;2024-02-14T08:21:56;7.30;99.90
48836;DHT22;62581;47.342;7.908;2024-02-14T08:24:26;7.30;99.90
48836;DHT22;62581;47.342;7.908;2024-02-14T08:26:53;7.40;99.90
48836;DHT22;62581;47.342;7.908;2024-02-14T08:29:20;7.40;99.90
48836;DHT22;62581;47.342;7.908;2024-02-14T08:31:47;7.40;99.90
48836;DHT22;62581;47.342;7.908;2024-02-14T08:34:14;7.40;99.90
48836;DHT22;62581;47.342;7.908;2024-02-14T08:36:41;7.40;99.90
48836;DHT22;62581;47.342;7.908;2024-02-14T08:39:09;7.50;99.90
48836;DHT22;62581;47.342;7.908;2024-02-14T08:41:38;7.60;99.90
48836;DHT22;62581;47.342;7.908;2024-02-14T08:44:07;7.70;99.90
48836;DHT22;62581;47.342;7.908;2024-02-14T08:46:34;7.80;99.90
48836;DHT22;62581;47.342;7.908;2024-02-14T08:49:01;7.90;99.90
48836;DHT22;62581;47.342;7.908;2024-02-14T08:51:33;8.00;99.90
48836;DHT22;62581;47.342;7.908;2024-02-14T08:54:00;8.00;99.90
48836;DHT22;62581;47.342;7.908;2024-02-14T08:56:30;8.10;99.90
48836;DHT22;62581;47.342;7.908;2024-02-14T08:59:00;8.20;99.90
48836;DHT22;62581;47.342;7.908;2024-02-14T09:01:28;8.30;99.90
48836;DHT22;62581;47.342;7.908;2024-02-14T09:03:55;8.30;99.90
48836;DHT22;62581;47.342;7.908;2024-02-14T09:06:22;8.40;99.90
48836;DHT22;62581;47.342;7.908;2024-02-14T09:08:49;8.60;99.90
48836;DHT22;62581;47.342;7.908;2024-02-14T09:11:17;8.70;99.90
48836;DHT22;62581;47.342;7.908;2024-02-14T09:13:44;8.80;99.90
48836;DHT22;62581;47.342;7.908;2024-02-14T09:16:14;9.00;99.90
48836;DHT22;62581;47.342;7.908;2024-02-14T09:18:42;9.10;99.90
48836;DHT22;62581;47.342;7.908;2024-02-14T09:21:11;9.20;99.90
48836;DHT22;62581;47.342;7.908;2024-02-14T09:23:38;9.30;99.90
48836;DHT22;62581;47.342;7.908;2024-02-14T09:26:05;9.30;99.90
48836;DHT22;62581;47.342;7.908;2024-02-14T09:28:33;9.30;99.90
48836;DHT22;62581;47.342;7.908;2024-02-14T09:31:00;9.40;99.90
48836;DHT22;62581;47.342;7.908;2024-02-14T09:33:31;9.50;99.90
48836;DHT22;62581;47.342;7.908;2024-02-14T09:35:58;9.60;99.90
48836;DHT22;62581;47.342;7.908;2024-02-14T09:38:25;9.70;99.90
48836;DHT22;62581;47.342;7.908;2024-02-14T09:40:53;9.70;99.90
48836;DHT22;62581;47.342;7.908;2024-02-14T09:43:28;9.80;99.90
48836;DHT22;62581;47.342;7.908;2024-02-14T09:45:58;9.90;99.90
48836;DHT22;62581;47.342;7.908;2024-02-14T09:48:26;9.90;99.90
48836;DHT22;62581;47.342;7.908;2024-02-14T09:50:56;9.90;99.90
48836;DHT22;62581;47.342;7.908;2024-02-14T09:53:24;9.90;99.90
48836;DHT22;62581;47.342;7.908;2024-02-14T09:55:51;9.90;99.90
48836;DHT22;62581;47.342;7.908;2024-02-14T09:58:18;9.90;99.90
48836;DHT22;62581;47.342;7.908;2024-02-14T10:00:46;10.00;99.90
48836;DHT22;62581;47.342;7.908;2024-02-14T10:03:13;10.10;99.90
48836;DHT22;62581;47.342;7.908;2024-02-14T10:05:41;10.10;99.90
48836;DHT22;62581;47.342;7.908;2024-02-14T10:08:10;10.20;99.90
48836;DHT22;62581;47.342;7.908;2024-02-14T10:10:38;10.20;99.90
48836;DHT22;62581;47.342;7.908;2024-02-14T10:13:05;10.30;99.90
48836;DHT22;62581;47.342;7.908;2024-02-14T10:15:32;10.30;99.90
48836;DHT22;62581;47.342;7.908;2024-02-14T10:17:59;10.40;99.90
48836;DHT22;62581;47.342;7.908;2024-02-14T10:20:27;10.50;99.90
48836;DHT22;62581;47.342;7.908;2024-02-14T10:23:00;10.70;99.90
48836;DHT22;62581;47.342;7.908;2024-02-14T10:25:30;10.70;99.90
48836;DHT22;62581;47.342;7.908;2024-02-14T10:28:03;10.80;99.90
48836;DHT22;62581;47.342;7.908;2024-02-14T10:30:34;10.90;99.90
48836;DHT22;62581;47.342;7.908;2024-02-14T10:33:02;11.10;99.90
48836;DHT22;62581;47.342;7.908;2024-02-14T10:35:30;11.50;99.90
48836;DHT22;62581;47.342;7.908;2024-02-14T10:37:58;11.70;99.90
48836;DHT22;62581;47.342;7.908;2024-02-14T10:40:27;11.80;99.90
48836;DHT22;62581;47.342;7.908;2024-02-14T10:42:56;11.70;99.90
48836;DHT22;62581;47.342;7.908;2024-02-14T10:45:24;11.80;99.90
48836;DHT22;62581;47.342;7.908;2024-02-14T10:47:53;11.90;99.90
48836;DHT22;62581;47.342;7.908;2024-02-14T10:50:21;11.90;99.90
48836;DHT22;62581;47.342;7.908;2024-02-14T10:52:49;12.00;99.90
48836;DHT22;62581;47.342;7.908;2024-02-14T10:55:17;12.10;99.90
48836;DHT22;62581;47.342;7.908;2024-02-14T10:57:44;12.10;99.90
48836;DHT22;62581;47.342;7.908;2024-02-14T11:00:15;12.20;99.90
48836;DHT22;62581;47.342;7.908;2024-02-14T11:02:44;12.30;99.90
48836;DHT22;62581;47.342;7.908;2024-02-14T11:05:13;12.20;99.90
48836;DHT22;62581;47.342;7.908;2024-02-14T11:07:44;12.40;99.90
48836;DHT22;62581;47.342;7.908;2024-02-14T11:10:14;12.40;99.90
48836;DHT22;62581;47.342;7.908;2024-02-14T11:12:41;12.30;99.90
48836;DHT22;62581;47.342;7.908;2024-02-14T11:15:17;12.20;99.90
48836;DHT22;62581;47.342;7.908;2024-02-14T11:17:44;12.00;99.90
48836;DHT22;62581;47.342;7.908;2024-02-14T11:20:15;12.00;99.90
48836;DHT22;62581;47.342;7.908;2024-02-14T11:22:56;12.10;99.90
48836;DHT22;62581;47.342;7.908;2024-02-14T11:25:31;12.20;99.90
48836;DHT22;62581;47.342;7.908;2024-02-14T11:28:00;12.30;99.90
48836;DHT22;62581;47.342;7.908;2024-02-14T11:30:34;12.50;99.90
48836;DHT22;62581;47.342;7.908;2024-02-14T11:33:16;12.70;99.90
48836;DHT22;62581;47.342;7.908;2024-02-14T11:35:45;13.00;99.90
48836;DHT22;62581;47.342;7.908;2024-02-14T11:38:12;13.20;99.90
48836;DHT22;62581;47.342;7.908;2024-02-14T11:40:39;13.40;99.90
48836;DHT22;62581;47.342;7.908;2024-02-14T11:43:11;13.50;99.90
48836;DHT22;62581;47.342;7.908;2024-02-14T11:45:41;13.80;99.90
48836;DHT22;62581;47.342;7.908;2024-02-14T11:48:09;13.90;99.90
48836;DHT22;62581;47.342;7.908;2024-02-14T11:50:39;14.20;99.90
48836;DHT22;62581;47.342;7.908;2024-02-14T11:53:06;14.50;99.90
48836;DHT22;62581;47.342;7.908;2024-02-14T11:55:35;14.80;99.90
48836;DHT22;62581;47.342;7.908;2024-02-14T11:58:06;14.80;99.90
48836;DHT22;62581;47.342;7.908;2024-02-14T12:00:33;14.90;99.90
48836;DHT22;62581;47.342;7.908;2024-02-14T12:03:06;14.90;99.90
48836;DHT22;62581;47.342;7.908;2024-02-14T12:05:34;15.10;99.90
48836;DHT22;62581;47.342;7.908;2024-02-14T12:08:02;15.20;99.90
48836;DHT22;62581;47.342;7.908;2024-02-14T12:10:31;15.70;99.90
48836;DHT22;62581;47.342;7.908;2024-02-14T12:12:58;16.30;99.90
48836;DHT22;62581;47.342;7.908;2024-02-14T12:15:37;16.30;99.90
48836;DHT22;62581;47.342;7.908;2024-02-14T12:18:05;16.00;99.90
48836;DHT22;62581;47.342;7.908;2024-02-14T12:20:32;15.80;99.90
48836;DHT22;62581;47.342;7.908;2024-02-14T12:23:02;15.80;99.90
48836;DHT22;62581;47.342;7.908;2024-02-14T12:25:30;15.80;99.90
48836;DHT22;62581;47.342;7.908;2024-02-14T12:27:57;15.80;99.90
48836;DHT22;62581;47.342;7.908;2024-02-14T12:30:42;16.10;99.90
48836;DHT22;62581;47.342;7.908;2024-02-14T12:33:12;16.50;99.90
48836;DHT22;62581;47.342;7.908;2024-02-14T12:35:42;17.20;99.90
48836;DHT22;62581;47.342;7.908;2024-02-14T12:38:10;17.40;99.90
48836;DHT22;62581;47.342;7.908;2024-02-14T12:40:37;18.40;99.90
48836;DHT22;62581;47.342;7.908;2024-02-14T12:43:04;19.40;99.90
48836;DHT22;62581;47.342;7.908;2024-02-14T12:45:32;19.70;99.90
48836;DHT22;62581;47.342;7.908;2024-02-14T12:47:59;19.40;99.90
48836;DHT22;62581;47.342;7.908;2024-02-14T12:50:27;19.30;99.90
48836;DHT22;62581;47.342;7.908;2024-02-14T12:52:54;19.70;99.90
48836;DHT22;62581;47.342;7.908;2024-02-14T12:55:21;20.40;99.20
48836;DHT22;62581;47.342;7.908;2024-02-14T12:57:51;21.00;98.20
48836;DHT22;62581;47.342;7.908;2024-02-14T13:00:18;21.30;97.10
48836;DHT22;62581;47.342;7.908;2024-02-14T13:02:46;21.70;95.50
48836;DHT22;62581;47.342;7.908;2024-02-14T13:05:14;21.20;95.60
48836;DHT22;62581;47.342;7.908;2024-02-14T13:07:43;20.30;96.30
48836;DHT22;62581;47.342;7.908;2024-02-14T13:10:10;19.30;97.70
48836;DHT22;62581;47.342;7.908;2024-02-14T13:12:38;18.70;98.50
48836;DHT22;62581;47.342;7.908;2024-02-14T13:15:05;18.50;99.00
48836;DHT22;62581;47.342;7.908;2024-02-14T13:17:33;18.40;99.50
48836;DHT22;62581;47.342;7.908;2024-02-14T13:20:00;18.50;99.60
48836;DHT22;62581;47.342;7.908;2024-02-14T13:22:27;18.40;99.90
48836;DHT22;62581;47.342;7.908;2024-02-14T13:24:55;18.40;99.90
48836;DHT22;62581;47.342;7.908;2024-02-14T13:27:22;18.30;99.80
48836;DHT22;62581;47.342;7.908;2024-02-14T13:29:49;18.10;99.90
48836;DHT22;62581;47.342;7.908;2024-02-14T13:32:16;17.80;99.90
48836;DHT22;62581;47.342;7.908;2024-02-14T13:34:43;17.80;99.90
48836;DHT22;62581;47.342;7.908;2024-02-14T13:37:10;17.60;99.90
48836;DHT22;62581;47.342;7.908;2024-02-14T13:39:37;17.50;99.90
48836;DHT22;62581;47.342;7.908;2024-02-14T13:42:06;17.40;99.90
48836;DHT22;62581;47.342;7.908;2024-02-14T13:44:33;17.00;99.90
48836;DHT22;62581;47.342;7.908;2024-02-14T13:47:00;16.80;99.90
48836;DHT22;62581;47.342;7.908;2024-02-14T13:49:28;16.70;99.90
48836;DHT22;62581;47.342;7.908;2024-02-14T13:51:55;16.50;99.90
48836;DHT22;62581;47.342;7.908;2024-02-14T13:54:23;16.40;99.90
48836;DHT22;62581;47.342;7.908;2024-02-14T13:56:51;16.40;99.90
48836;DHT22;62581;47.342;7.908;2024-02-14T13:59:19;16.30;99.90
48836;DHT22;62581;47.342;7.908;2024-02-14T14:01:46;16.20;99.90
48836;DHT22;62581;47.342;7.908;2024-02-14T14:04:14;16.30;99.90
48836;DHT22;62581;47.342;7.908;2024-02-14T14:06:41;16.30;99.90
48836;DHT22;62581;47.342;7.908;2024-02-14T14:09:08;16.20;99.90
48836;DHT22;62581;47.342;7.908;2024-02-14T14:11:36;16.10;99.90
48836;DHT22;62581;47.342;7.908;2024-02-14T14:14:03;16.00;99.90
48836;DHT22;62581;47.342;7.908;2024-02-14T14:16:32;15.90;99.90
48836;DHT22;62581;47.342;7.908;2024-02-14T14:18:59;15.80;99.90
48836;DHT22;62581;47.342;7.908;2024-02-14T14:21:26;15.70;99.90
48836;DHT22;62581;47.342;7.908;2024-02-14T14:23:53;15.50;99.90
48836;DHT22;62581;47.342;7.908;2024-02-14T14:26:20;15.40;99.90
48836;DHT22;62581;47.342;7.908;2024-02-14T14:28:47;15.20;99.90
48836;DHT22;62581;47.342;7.908;2024-02-14T14:31:14;15.20;99.90
48836;DHT22;62581;47.342;7.908;2024-02-14T14:33:42;15.10;99.90
48836;DHT22;62581;47.342;7.908;2024-02-14T14:36:09;15.00;99.90
48836;DHT22;62581;47.342;7.908;2024-02-14T14:38:36;14.90;99.90
48836;DHT22;62581;47.342;7.908;2024-02-14T14:41:06;14.80;99.90
48836;DHT22;62581;47.342;7.908;2024-02-14T14:43:33;14.80;99.90
48836;DHT22;62581;47.342;7.908;2024-02-14T14:46:00;14.70;99.90
48836;DHT22;62581;47.342;7.908;2024-02-14T14:48:27;14.70;99.90
48836;DHT22;62581;47.342;7.908;2024-02-14T14:50:55;14.70;99.90
48836;DHT22;62581;47.342;7.908;2024-02-14T14:53:22;14.70;99.90
48836;DHT22;62581;47.342;7.908;2024-02-14T14:55:51;14.70;99.90
48836;DHT22;62581;47.342;7.908;2024-02-14T14:58:18;14.90;99.90
48836;DHT22;62581;47.342;7.908;2024-02-14T15:00:46;14.90;99.90
48836;DHT22;62581;47.342;7.908;2024-02-14T15:03:13;15.00;99.90
48836;DHT22;62581;47.342;7.908;2024-02-14T15:05:40;15.00;99.90
48836;DHT22;62581;47.342;7.908;2024-02-14T15:08:08;14.90;99.90
48836;DHT22;62581;47.342;7.908;2024-02-14T15:10:35;14.80;99.90
48836;DHT22;62581;47.342;7.908;2024-02-14T15:13:04;14.70;99.90
48836;DHT22;62581;47.342;7.908;2024-02-14T15:15:31;14.60;99.90
48836;DHT22;62581;47.342;7.908;2024-02-14T15:17:58;14.60;99.90
48836;DHT22;62581;47.342;7.908;2024-02-14T15:20:25;14.50;99.90
48836;DHT22;62581;47.342;7.908;2024-02-14T15:22:53;14.40;99.90
48836;DHT22;62581;47.342;7.908;2024-02-14T15:25:21;14.40;99.90
48836;DHT22;62581;47.342;7.908;2024-02-14T15:27:51;14.30;99.90
48836;DHT22;62581;47.342;7.908;2024-02-14T15:30:21;14.30;99.90
48836;DHT22;62581;47.342;7.908;2024-02-14T15:33:06;14.20;99.90
48836;DHT22;62581;47.342;7.908;2024-02-14T15:35:48;14.20;99.90
48836;DHT22;62581;47.342;7.908;2024-02-14T15:38:16;14.20;99.90
48836;DHT22;62581;47.342;7.908;2024-02-14T15:40:46;14.10;99.90
48836;DHT22;62581;47.342;7.908;2024-02-14T15:43:16;14.10;99.90